createdAt,value
2018-03-16T00:00:34.223Z,99704.70
2018-03-16T00:03:06.696Z,99691.38
2018-03-16T00:05:39.205Z,99701.63
2018-03-16T00:08:11.709Z,99711.37
2018-03-16T00:10:44.381Z,99708.13
2018-03-16T00:13:16.952Z,99710.69
2018-03-16T00:15:49.462Z,99716.82
2018-03-16T00:18:21.966Z,99714.98
2018-03-16T00:20:54.471Z,99727.53
2018-03-16T00:23:26.949Z,99731.99
2018-03-16T00:25:59.446Z,99718.33
2018-03-16T00:28:31.931Z,99727.73
2018-03-16T00:31:04.438Z,99720.73
2018-03-16T00:33:36.916Z,99720.25
2018-03-16T00:36:09.405Z,99724.84
2018-03-16T00:38:42.059Z,99723.61
2018-03-16T00:41:14.715Z,99729.63
2018-03-16T00:43:47.311Z,99724.71
2018-03-16T00:46:19.824Z,99724.33
2018-03-16T00:48:52.351Z,99731.75
2018-03-16T00:51:24.853Z,99739.96
2018-03-16T00:53:57.326Z,99736.17
2018-03-16T00:56:29.828Z,99742.84
2018-03-16T00:59:02.297Z,99740.63
2018-03-16T01:01:34.790Z,99735.26
2018-03-16T01:04:07.262Z,99742.34
2018-03-16T01:06:39.755Z,99744.55
2018-03-16T01:09:12.441Z,99740.68
2018-03-16T01:11:45.062Z,99737.74
2018-03-16T01:14:17.651Z,99737.23
2018-03-16T01:16:50.257Z,99737.27
2018-03-16T01:19:22.825Z,99741.55
2018-03-16T01:21:55.328Z,99738.38
2018-03-16T01:24:27.817Z,99724.41
2018-03-16T01:27:00.326Z,99733.38
2018-03-16T01:29:32.812Z,99731.44
2018-03-16T01:32:05.306Z,99726.27
2018-03-16T01:34:37.786Z,99731.73
2018-03-16T01:37:10.295Z,99727.39
2018-03-16T01:39:43.245Z,99729.59
2018-03-16T01:42:15.877Z,99740.34
2018-03-16T01:44:48.401Z,99722.61
2018-03-16T01:47:20.949Z,99733.52
2018-03-16T01:49:53.462Z,99726.05
2018-03-16T01:52:25.958Z,99726.47
2018-03-16T01:54:58.437Z,99730.64
2018-03-16T01:57:30.934Z,99725.93
2018-03-16T02:00:03.412Z,99727.50
2018-03-16T02:02:35.915Z,99727.15
2018-03-16T02:05:08.402Z,99726.17
2018-03-16T02:07:40.903Z,99722.24
2018-03-16T02:10:13.467Z,99735.19
2018-03-16T02:12:46.127Z,99726.52
2018-03-16T02:15:18.656Z,99721.86
2018-03-16T02:17:51.226Z,99721.91
2018-03-16T02:20:23.757Z,99714.47
2018-03-16T02:22:56.272Z,99726.84
2018-03-16T02:25:28.751Z,99715.91
2018-03-16T02:28:01.248Z,99714.32
2018-03-16T02:30:33.726Z,99715.58
2018-03-16T02:33:06.230Z,99727.63
2018-03-16T02:35:38.706Z,99726.93
2018-03-16T02:38:11.211Z,99724.36
2018-03-16T02:40:44.335Z,99727.50
2018-03-16T02:43:17.137Z,99733.53
2018-03-16T02:45:49.670Z,99723.73
2018-03-16T02:48:22.235Z,99734.52
2018-03-16T02:50:54.734Z,99728.82
2018-03-16T02:53:27.208Z,99723.39
2018-03-16T02:55:59.723Z,99728.98
2018-03-16T02:58:32.204Z,99722.48
2018-03-16T03:01:04.711Z,99724.55
2018-03-16T03:03:37.202Z,99731.76
2018-03-16T03:06:09.704Z,99728.97
2018-03-16T03:08:43.499Z,99734.62
2018-03-16T03:11:16.350Z,99734.40
2018-03-16T03:13:48.867Z,99725.81
2018-03-16T03:16:21.390Z,99735.31
2018-03-16T03:18:53.894Z,99733.70
2018-03-16T03:21:26.386Z,99730.37
2018-03-16T03:23:58.857Z,99732.09
2018-03-16T03:26:31.361Z,99734.14
2018-03-16T03:29:03.829Z,99742.34
2018-03-16T03:31:36.324Z,99732.38
2018-03-16T03:34:08.802Z,99738.70
2018-03-16T03:36:41.310Z,99730.94
2018-03-16T03:39:13.881Z,99738.71
2018-03-16T03:41:46.411Z,99749.09
2018-03-16T03:44:18.927Z,99753.84
2018-03-16T03:46:51.437Z,99757.87
2018-03-16T03:49:23.949Z,99761.48
2018-03-16T03:51:56.450Z,99767.41
2018-03-16T03:54:28.927Z,99773.05
2018-03-16T03:57:01.418Z,99758.16
2018-03-16T03:59:33.885Z,99765.01
2018-03-16T04:02:06.382Z,99757.73
2018-03-16T04:04:38.850Z,99762.96
2018-03-16T04:07:11.351Z,99758.46
2018-03-16T04:09:44.646Z,99757.27
2018-03-16T04:12:17.394Z,99755.92
2018-03-16T04:14:49.945Z,99768.23
2018-03-16T04:17:22.542Z,99764.55
2018-03-16T04:19:55.051Z,99758.69
2018-03-16T04:22:27.558Z,99774.94
2018-03-16T04:25:00.035Z,99773.91
2018-03-16T04:27:32.529Z,99773.32
2018-03-16T04:30:05.033Z,99768.66
2018-03-16T04:32:37.534Z,99783.44
2018-03-16T04:35:10.032Z,99770.16
2018-03-16T04:37:42.909Z,99767.93
2018-03-16T04:40:15.517Z,99762.10
2018-03-16T04:42:48.090Z,99765.80
2018-03-16T04:45:20.665Z,99763.88
2018-03-16T04:47:53.247Z,99764.08
2018-03-16T04:50:25.760Z,99779.84
2018-03-16T04:52:58.263Z,99763.27
2018-03-16T04:55:30.744Z,99762.35
2018-03-16T04:58:03.241Z,99764.03
2018-03-16T05:00:35.724Z,99768.47
2018-03-16T05:03:08.238Z,99773.90
2018-03-16T05:05:40.714Z,99770.14
2018-03-16T05:08:13.419Z,99776.70
2018-03-16T05:10:46.050Z,99772.79
2018-03-16T05:13:18.684Z,99775.97
2018-03-16T05:15:51.271Z,99785.47
2018-03-16T05:18:23.804Z,99787.94
2018-03-16T05:20:56.280Z,99785.67
2018-03-16T05:23:28.779Z,99798.52
2018-03-16T05:26:01.247Z,99794.48
2018-03-16T05:28:33.752Z,99783.10
2018-03-16T05:31:06.235Z,99802.37
2018-03-16T05:33:38.726Z,99799.19
2018-03-16T05:36:11.220Z,99803.29
2018-03-16T05:38:43.792Z,99810.51
2018-03-16T05:41:16.377Z,99817.83
2018-03-16T05:43:48.933Z,99812.16
2018-03-16T05:46:22.184Z,99822.58
2018-03-16T05:48:54.985Z,99812.98
2018-03-16T05:51:27.467Z,99815.97
2018-03-16T05:53:59.963Z,99823.84
2018-03-16T05:56:32.443Z,99825.59
2018-03-16T05:59:04.952Z,99818.39
2018-03-16T06:01:37.440Z,99820.11
2018-03-16T06:04:09.946Z,99826.84
2018-03-16T06:06:42.761Z,99815.55
2018-03-16T06:09:15.539Z,99824.31
2018-03-16T06:11:48.049Z,99827.64
2018-03-16T06:14:20.610Z,99822.88
2018-03-16T06:16:53.208Z,99827.57
2018-03-16T06:19:25.733Z,99837.67
2018-03-16T06:21:58.227Z,99818.73
2018-03-16T06:24:30.711Z,99819.67
2018-03-16T06:27:03.205Z,99835.05
2018-03-16T06:29:35.683Z,99823.92
2018-03-16T06:32:08.179Z,99845.47
2018-03-16T06:34:40.655Z,99833.74
2018-03-16T06:37:13.415Z,99835.73
2018-03-16T06:39:46.053Z,99833.39
2018-03-16T06:42:18.643Z,99825.40
2018-03-16T06:44:51.331Z,99837.50
2018-03-16T06:47:23.959Z,99834.24
2018-03-16T06:49:56.475Z,99848.53
2018-03-16T06:52:28.984Z,99839.17
2018-03-16T06:55:01.462Z,99844.66
2018-03-16T06:57:33.965Z,99866.73
2018-03-16T07:00:06.439Z,99853.12
2018-03-16T07:02:38.942Z,99853.36
2018-03-16T07:05:11.421Z,99846.36
2018-03-16T07:07:44.453Z,99852.91
2018-03-16T07:10:17.636Z,99852.64
2018-03-16T07:12:50.501Z,99856.47
2018-03-16T07:15:37.891Z,99867.23
2018-03-16T07:18:10.383Z,99860.51
2018-03-16T07:20:43.161Z,99867.42
2018-03-16T07:23:15.967Z,99886.88
2018-03-16T07:25:48.631Z,99871.66
2018-03-16T07:28:21.273Z,99876.86
2018-03-16T07:30:53.906Z,99878.32
2018-03-16T07:33:26.462Z,99888.65
2018-03-16T07:35:58.939Z,99896.49
2018-03-16T07:38:31.439Z,99889.38
2018-03-16T07:41:03.912Z,99900.34
2018-03-16T07:43:36.416Z,99905.16
2018-03-16T07:46:14.625Z,99907.45
2018-03-16T07:48:47.774Z,99912.66
2018-03-16T07:51:21.195Z,99908.24
2018-03-16T07:53:53.856Z,99914.95
2018-03-16T07:56:26.352Z,99927.18
2018-03-16T07:58:58.855Z,99918.70
2018-03-16T08:01:31.335Z,99914.85
2018-03-16T08:04:03.835Z,99922.12
2018-03-16T08:06:36.312Z,99921.33
2018-03-16T08:09:08.816Z,99928.62
2018-03-16T08:11:41.308Z,99922.88
2018-03-16T08:14:15.055Z,99931.06
2018-03-16T08:16:47.743Z,99934.13
2018-03-16T08:19:20.337Z,99934.38
2018-03-16T08:21:52.932Z,99931.02
2018-03-16T08:24:25.514Z,99933.37
2018-03-16T08:26:58.007Z,99928.06
2018-03-16T08:29:30.511Z,99945.30
2018-03-16T08:32:02.995Z,99944.44
2018-03-16T08:34:35.490Z,99947.76
2018-03-16T08:37:07.974Z,99952.16
2018-03-16T08:39:40.476Z,99948.34
2018-03-16T08:42:13.466Z,99950.05
2018-03-16T08:44:46.753Z,99942.39
2018-03-16T08:47:19.408Z,99948.80
2018-03-16T08:49:52.040Z,99946.20
2018-03-16T08:52:24.750Z,99951.31
2018-03-16T08:54:57.284Z,99953.38
2018-03-16T08:57:29.764Z,99953.85
2018-03-16T09:00:02.266Z,99959.72
2018-03-16T09:02:34.766Z,99957.59
2018-03-16T09:05:07.272Z,99957.59
2018-03-16T09:07:39.771Z,99957.55
2018-03-16T09:10:12.918Z,99971.39
2018-03-16T09:12:45.767Z,99965.61
2018-03-16T09:15:18.417Z,99963.93
2018-03-16T09:17:51.069Z,99962.55
2018-03-16T09:20:23.701Z,99961.80
2018-03-16T09:22:56.319Z,99969.81
2018-03-16T09:25:28.865Z,99968.94
2018-03-16T09:28:01.328Z,99976.61
2018-03-16T09:30:34.263Z,99976.22
2018-03-16T09:33:06.763Z,99973.23
2018-03-16T09:35:39.240Z,99983.31
2018-03-16T09:38:11.770Z,99978.73
2018-03-16T09:40:44.695Z,99975.28
2018-03-16T09:43:17.722Z,99972.84
2018-03-16T09:45:50.432Z,99982.92
2018-03-16T09:48:23.091Z,99980.84
2018-03-16T09:50:55.631Z,99983.69
2018-03-16T09:53:31.047Z,99977.41
2018-03-16T09:56:03.523Z,99987.52
2018-03-16T09:58:36.003Z,99988.75
2018-03-16T10:01:08.513Z,100003.09
2018-03-16T10:03:41.018Z,100004.77
2018-03-16T10:06:14.631Z,100010.66
2018-03-16T10:08:47.367Z,100009.42
2018-03-16T10:11:19.999Z,100009.86
2018-03-16T10:13:52.565Z,100000.61
2018-03-16T10:16:25.110Z,99995.50
2018-03-16T10:18:57.667Z,100006.80
2018-03-16T10:21:30.145Z,100017.30
2018-03-16T10:24:02.648Z,100003.53
2018-03-16T10:26:35.114Z,100007.32
2018-03-16T10:29:07.602Z,100016.10
2018-03-16T10:31:40.074Z,100005.10
2018-03-16T10:34:12.813Z,100003.48
2018-03-16T10:36:45.968Z,100003.50
2018-03-16T10:39:18.817Z,100011.10
2018-03-16T10:41:51.414Z,100014.50
2018-03-16T10:44:24.027Z,100014.80
2018-03-16T10:46:56.565Z,100012.26
2018-03-16T10:49:29.080Z,100003.86
2018-03-16T10:52:01.543Z,100007.62
2018-03-16T10:54:34.047Z,100015.20
2018-03-16T10:57:06.552Z,100024.95
2018-03-16T10:59:39.043Z,100028.77
2018-03-16T11:02:17.464Z,100028.36
2018-03-16T11:04:55.589Z,100019.09
2018-03-16T11:07:44.040Z,100030.47
2018-03-16T11:10:22.378Z,100030.47
2018-03-16T11:12:54.883Z,100030.87
2018-03-16T11:15:27.415Z,100035.84
2018-03-16T11:17:59.926Z,100026.24
2018-03-16T11:20:32.427Z,100024.99
2018-03-16T11:23:04.890Z,100030.90
2018-03-16T11:25:37.382Z,100041.39
2018-03-16T11:28:09.883Z,100031.69
2018-03-16T11:30:42.721Z,100047.73
2018-03-16T11:33:15.549Z,100042.67
2018-03-16T11:35:49.487Z,100030.43
2018-03-16T11:38:22.658Z,100039.28
2018-03-16T11:40:55.363Z,100036.30
2018-03-16T11:43:29.181Z,100036.77
2018-03-16T11:46:02.180Z,100037.19
2018-03-16T11:48:34.994Z,100036.80
2018-03-16T11:51:07.792Z,100032.58
2018-03-16T11:53:41.760Z,100038.02
2018-03-16T11:56:15.013Z,100043.50
2018-03-16T11:58:48.162Z,100043.03
2018-03-16T12:01:21.182Z,100045.55
2018-03-16T12:03:56.262Z,100040.11
2018-03-16T12:06:28.995Z,100042.62
2018-03-16T12:09:01.533Z,100037.19
2018-03-16T12:11:34.046Z,100041.41
2018-03-16T12:14:06.698Z,100038.88
2018-03-16T12:16:39.404Z,100043.09
2018-03-16T12:19:11.985Z,100053.19
2018-03-16T12:21:44.850Z,100049.83
2018-03-16T12:24:17.776Z,100057.83
2018-03-16T12:26:50.516Z,100052.31
2018-03-16T12:29:23.395Z,100050.17
2018-03-16T12:31:55.999Z,100070.44
2018-03-16T12:34:28.538Z,100046.42
2018-03-16T12:37:01.058Z,100049.80
2018-03-16T12:39:33.721Z,100048.13
2018-03-16T12:42:06.289Z,100049.80
2018-03-16T12:44:38.803Z,100060.73
2018-03-16T12:47:11.274Z,100048.13
2018-03-16T12:49:44.468Z,100077.59
2018-03-16T12:52:17.809Z,100052.37
2018-03-16T12:54:50.364Z,100058.21
2018-03-16T12:57:22.917Z,100053.19
2018-03-16T12:59:55.730Z,100086.00
2018-03-16T13:02:28.456Z,100060.34
2018-03-16T13:05:01.157Z,100055.69
2018-03-16T13:07:33.720Z,100064.13
2018-03-16T13:10:06.375Z,100059.50
2018-03-16T13:12:38.918Z,100066.63
2018-03-16T13:15:11.568Z,100066.66
2018-03-16T13:17:44.550Z,100068.75
2018-03-16T13:20:17.460Z,100075.05
2018-03-16T13:22:50.107Z,100074.64
2018-03-16T13:25:22.904Z,100068.75
2018-03-16T13:27:55.474Z,100075.48
2018-03-16T13:30:28.023Z,100086.02
2018-03-16T13:33:00.542Z,100077.17
2018-03-16T13:35:33.099Z,100079.25
2018-03-16T13:38:05.650Z,100086.87
2018-03-16T13:40:38.159Z,100086.00
2018-03-16T13:43:10.702Z,100090.64
2018-03-16T13:45:44.407Z,100094.44
2018-03-16T13:48:17.078Z,100091.91
2018-03-16T13:50:49.688Z,100101.83
2018-03-16T13:53:22.318Z,100127.62
2018-03-16T13:55:55.018Z,100110.91
2018-03-16T13:58:27.589Z,100115.87
2018-03-16T14:01:00.170Z,100108.27
2018-03-16T14:03:32.777Z,100116.21
2018-03-16T14:06:05.283Z,100126.39
2018-03-16T14:08:37.847Z,100122.63
2018-03-16T14:11:10.466Z,100122.20
2018-03-16T14:13:43.163Z,100121.80
2018-03-16T14:16:16.312Z,100135.66
2018-03-16T14:18:49.043Z,100130.17
2018-03-16T14:21:21.984Z,100126.76
2018-03-16T14:23:54.621Z,100137.33
2018-03-16T14:26:28.365Z,100136.91
2018-03-16T14:29:01.111Z,100146.98
2018-03-16T14:31:33.766Z,100149.85
2018-03-16T14:34:06.422Z,100152.47
2018-03-16T14:36:39.380Z,100151.83
2018-03-16T14:39:13.186Z,100156.09
2018-03-16T14:41:46.217Z,100160.99
2018-03-16T14:44:19.401Z,100161.48
2018-03-16T14:46:52.613Z,100175.45
2018-03-16T14:49:25.505Z,100175.64
2018-03-16T14:51:58.207Z,100174.97
2018-03-16T14:54:31.043Z,100179.39
2018-03-16T14:57:03.619Z,100189.39
2018-03-16T14:59:36.297Z,100183.72
2018-03-16T15:02:09.016Z,100182.09
2018-03-16T15:04:42.272Z,100187.59
2018-03-16T15:07:15.073Z,100185.85
2018-03-16T15:09:48.289Z,100177.70
2018-03-16T15:12:21.180Z,100182.86
2018-03-16T15:14:54.196Z,100190.22
2018-03-16T15:17:26.838Z,100190.53
2018-03-16T15:19:59.450Z,100200.61
2018-03-16T15:22:31.999Z,100197.95
2018-03-16T15:25:04.630Z,100194.41
2018-03-16T15:27:37.445Z,100188.45
2018-03-16T15:30:10.148Z,100203.73
2018-03-16T15:32:42.858Z,100188.64
2018-03-16T15:35:18.129Z,100203.66
2018-03-16T15:37:51.117Z,100205.50
2018-03-16T15:40:24.047Z,100199.05
2018-03-16T15:42:56.631Z,100202.35
2018-03-16T15:45:29.245Z,100203.28
2018-03-16T15:48:01.851Z,100201.62
2018-03-16T15:50:34.429Z,100204.41
2018-03-16T15:53:07.169Z,100205.41
2018-03-16T15:55:40.721Z,100204.14
2018-03-16T15:58:13.490Z,100213.63
2018-03-16T16:00:46.765Z,100220.37
2018-03-16T16:03:19.433Z,100223.82
2018-03-16T16:05:52.229Z,100228.52
2018-03-16T16:08:24.804Z,100242.33
2018-03-16T16:10:57.631Z,100237.20
2018-03-16T16:13:30.229Z,100235.06
2018-03-16T16:16:02.798Z,100241.92
2018-03-16T16:18:35.334Z,100248.13
2018-03-16T16:21:07.929Z,100247.58
2018-03-16T16:23:40.606Z,100243.97
2018-03-16T16:26:14.133Z,100259.78
2018-03-16T16:28:47.081Z,100245.98
2018-03-16T16:31:20.074Z,100257.19
2018-03-16T16:33:52.927Z,100252.41
2018-03-16T16:36:25.931Z,100257.64
2018-03-16T16:38:58.488Z,100272.83
2018-03-16T16:41:31.427Z,100272.47
2018-03-16T16:44:04.025Z,100268.56
2018-03-16T16:46:36.835Z,100279.38
2018-03-16T16:49:09.425Z,100278.98
2018-03-16T16:51:42.158Z,100297.31
2018-03-16T16:54:15.122Z,100294.83
2018-03-16T16:56:48.087Z,100296.31
2018-03-16T16:59:20.796Z,100297.41
2018-03-16T17:01:53.870Z,100298.86
2018-03-16T17:04:26.641Z,100317.93
2018-03-16T17:06:59.303Z,100297.95
2018-03-16T17:09:31.841Z,100309.98
2018-03-16T17:12:04.450Z,100310.79
2018-03-16T17:14:36.967Z,100324.45
2018-03-16T17:17:09.516Z,100329.75
2018-03-16T17:19:42.440Z,100329.81
2018-03-16T17:22:15.614Z,100318.64
2018-03-16T17:24:48.499Z,100336.66
2018-03-16T17:27:21.661Z,100342.06
2018-03-16T17:29:54.873Z,100334.77
2018-03-16T17:32:27.575Z,100334.92
2018-03-16T17:35:00.339Z,100347.33
2018-03-16T17:37:32.996Z,100346.65
2018-03-16T17:40:05.751Z,100357.96
2018-03-16T17:42:38.280Z,100353.95
2018-03-16T17:45:10.834Z,100370.25
2018-03-16T17:47:43.649Z,100356.84
2018-03-16T17:50:16.560Z,100369.64
2018-03-16T17:52:49.293Z,100360.03
2018-03-16T17:55:21.946Z,100364.56
2018-03-16T17:57:55.646Z,100374.76
2018-03-16T18:00:28.267Z,100361.77
2018-03-16T18:03:01.062Z,100370.98
2018-03-16T18:05:33.704Z,100371.23
2018-03-16T18:08:06.326Z,100381.62
2018-03-16T18:10:38.953Z,100375.44
2018-03-16T18:13:12.047Z,100377.50
2018-03-16T18:15:45.343Z,100386.21
2018-03-16T18:18:18.304Z,100387.76
2018-03-16T18:20:51.159Z,100392.96
2018-03-16T18:23:24.105Z,100387.73
2018-03-16T18:25:56.969Z,100386.93
2018-03-16T18:28:30.200Z,100387.61
2018-03-16T18:31:02.877Z,100397.39
2018-03-16T18:33:35.497Z,100398.11
2018-03-16T18:36:08.228Z,100417.05
2018-03-16T18:38:40.833Z,100401.16
2018-03-16T18:41:13.516Z,100404.77
2018-03-16T18:43:46.495Z,100412.08
2018-03-16T18:46:19.144Z,100412.08
2018-03-16T18:48:52.065Z,100417.17
2018-03-16T18:51:24.965Z,100423.72
2018-03-16T18:53:57.595Z,100416.56
2018-03-16T18:56:30.364Z,100412.44
2018-03-16T18:59:02.980Z,100418.30
2018-03-16T19:01:35.692Z,100418.33
2018-03-16T19:04:14.507Z,100422.03
2018-03-16T19:06:49.470Z,100426.05
2018-03-16T19:12:08.356Z,100438.30
2018-03-16T19:14:40.935Z,100437.84
2018-03-16T19:20:02.934Z,100457.84
2018-03-16T19:22:35.549Z,100444.91
2018-03-16T19:25:08.387Z,100422.43
2018-03-16T19:27:54.356Z,100439.05
2018-03-16T19:30:27.170Z,100450.18
2018-03-16T19:32:59.835Z,100435.84
2018-03-16T19:35:32.706Z,100435.82
2018-03-16T19:38:05.409Z,100437.31
2018-03-16T19:40:37.972Z,100451.81
2018-03-16T19:43:18.283Z,100450.16
2018-03-16T19:46:04.949Z,100449.75
2018-03-16T19:48:49.560Z,100456.12
2018-03-16T19:51:25.669Z,100444.59
2018-03-16T19:59:54.048Z,100440.51
2018-03-16T20:02:28.668Z,100444.97
2018-03-16T20:05:06.202Z,100447.42
2018-03-16T20:07:40.856Z,100462.83
2018-03-16T20:10:23.597Z,100457.50
2018-03-16T20:12:57.833Z,100449.55
2018-03-16T20:15:30.438Z,100473.38
2018-03-16T20:18:02.930Z,100464.66
2018-03-16T20:20:35.408Z,100487.52
2018-03-16T20:23:07.902Z,100490.81
2018-03-16T20:25:40.390Z,100466.77
2018-03-16T20:28:13.204Z,100482.17
2018-03-16T20:30:45.783Z,100487.78
2018-03-16T20:33:19.450Z,100483.70
2018-03-16T20:35:52.016Z,100486.23
2018-03-16T20:38:24.520Z,100489.00
2018-03-16T20:40:57.000Z,100484.97
2018-03-16T20:43:29.919Z,100503.00
2018-03-16T20:46:03.308Z,100507.48
2018-03-16T20:48:37.583Z,100500.12
2018-03-16T20:51:10.794Z,100511.77
2018-03-16T20:53:43.914Z,100526.75
2018-03-16T20:56:16.782Z,100505.45
2018-03-16T20:58:49.500Z,100510.42
2018-03-16T21:01:22.448Z,100511.80
2018-03-16T21:03:55.749Z,100527.40
2018-03-16T21:06:28.552Z,100524.78
2018-03-16T21:09:01.075Z,100513.34
2018-03-16T21:11:35.147Z,100521.34
2018-03-16T21:14:08.499Z,100526.67
2018-03-16T21:16:41.452Z,100531.26
2018-03-16T21:19:14.358Z,100539.85
2018-03-16T21:21:47.370Z,100538.31
2018-03-16T21:24:20.302Z,100540.97
2018-03-16T21:26:53.152Z,100538.61
2018-03-16T21:29:26.939Z,100540.84
2018-03-16T21:32:01.080Z,100540.89
2018-03-16T21:34:33.706Z,100553.77
2018-03-16T21:37:06.506Z,100544.34
2018-03-16T21:39:39.162Z,100576.88
2018-03-16T21:42:11.737Z,100556.95
2018-03-16T21:44:44.272Z,100570.75
2018-03-16T21:47:16.747Z,100554.67
2018-03-16T21:49:49.294Z,100559.33
2018-03-16T21:52:21.769Z,100564.51
2018-03-16T21:54:54.268Z,100556.78
2018-03-16T21:57:26.735Z,100571.38
2018-03-16T21:59:59.234Z,100568.02
2018-03-16T22:02:31.774Z,100563.47
2018-03-16T22:05:04.425Z,100577.41
2018-03-16T22:07:37.124Z,100560.77
2018-03-16T22:10:09.706Z,100558.73
2018-03-16T22:12:42.277Z,100565.61
2018-03-16T22:15:14.816Z,100574.73
2018-03-16T22:17:47.370Z,100565.81
2018-03-16T22:20:19.866Z,100577.94
2018-03-16T22:22:52.340Z,100585.52
2018-03-16T22:25:24.844Z,100564.77
2018-03-16T22:27:57.325Z,100587.11
2018-03-16T22:30:30.096Z,100580.53
2018-03-16T22:33:02.715Z,100578.26
2018-03-16T22:35:35.686Z,100576.50
2018-03-16T22:38:08.313Z,100581.56
2018-03-16T22:40:40.996Z,100584.64
2018-03-16T22:43:13.971Z,100575.62
2018-03-16T22:45:46.798Z,100586.77
2018-03-16T22:48:19.392Z,100589.88
2018-03-16T22:50:52.114Z,100585.13
2018-03-16T22:53:25.011Z,100578.88
2018-03-16T22:55:57.559Z,100592.50
2018-03-16T22:58:30.348Z,100598.44
2018-03-16T23:01:02.873Z,100586.20
2018-03-16T23:03:35.503Z,100584.45
2018-03-16T23:06:08.321Z,100604.20
2018-03-16T23:08:41.201Z,100595.41
2018-03-16T23:11:13.882Z,100616.07
2018-03-16T23:13:46.468Z,100600.27
2018-03-16T23:16:19.579Z,100608.48
2018-03-16T23:18:52.169Z,100610.63
2018-03-16T23:21:24.675Z,100610.30
2018-03-16T23:23:57.163Z,100606.09
2018-03-16T23:26:29.659Z,100598.31
2018-03-16T23:29:02.574Z,100606.78
2018-03-16T23:31:35.215Z,100611.03
2018-03-16T23:34:08.099Z,100598.23
2018-03-16T23:36:40.764Z,100608.17
2018-03-16T23:39:13.823Z,100604.02
2018-03-16T23:41:46.329Z,100597.05
2018-03-16T23:44:18.828Z,100602.09
2018-03-16T23:46:51.550Z,100620.07
2018-03-16T23:49:24.491Z,100610.72
2018-03-16T23:51:57.129Z,100627.28
2018-03-16T23:54:29.655Z,100623.72
2018-03-16T23:57:02.161Z,100633.81
2018-03-16T23:59:35.024Z,100627.05
